Time;durP1;ratioP1;P1;durP2;ratioP2;P2;SDS_P1;SDS_P2;PMS_P1;PMS_P2;Temp;Humidity;BMP_temperature;BMP_pressure;BME280_temperature;BME280_humidity;BME280_pressure;Samples;Min_cycle;Max_cycle;Signal;HPM_P1;HPM_P2
2021/01/31 00:00:46;;;;;;;;;;;;;;;3.69;85.46;99218.90;1829568;78;20255;-40
2021/01/31 00:03:16;;;;;;;;;;;;;;;3.66;85.59;99211.18;1829702;78;20532;-39
2021/01/31 00:05:45;;;;;;;;;;;;;;;3.63;85.64;99218.54;1829344;78;20192;-45
2021/01/31 00:08:13;;;;;;;;;;;;;;;3.58;85.69;99221.64;1829514;78;20125;-40
2021/01/31 00:10:41;;;;;;;;;;;;;;;3.55;85.83;99222.52;1829734;78;20168;-41
2021/01/31 00:13:10;;;;;;;;;;;;;;;3.52;85.96;99218.69;1829782;78;20470;-40
2021/01/31 00:15:39;;;;;;;;;;;;;;;3.49;86.00;99216.12;1829440;78;20457;-40
2021/01/31 00:18:07;;;;;;;;;;;;;;;3.45;86.10;99213.16;1829418;78;20125;-38
2021/01/31 00:20:36;;;;;;;;;;;;;;;3.46;86.22;99214.02;1829473;78;20180;-39
2021/01/31 00:23:04;;;;;;;;;;;;;;;3.42;86.25;99218.36;1829492;78;20136;-41
2021/01/31 00:25:31;;;;;;;;;;;;;;;3.39;86.37;99211.08;1829415;78;20155;-39
2021/01/31 00:27:59;;;;;;;;;;;;;;;3.35;86.51;99211.53;1829552;78;20212;-38
2021/01/31 00:30:30;;;;;;;;;;;;;;;3.32;86.68;99205.55;1835642;77;20388;-39
2021/01/31 00:32:59;;;;;;;;;;;;;;;3.29;86.85;99207.72;1833115;77;20175;-40
2021/01/31 00:35:28;;;;;;;;;;;;;;;3.27;87.06;99199.13;1829583;77;20438;-41
2021/01/31 00:37:56;;;;;;;;;;;;;;;3.29;87.19;99200.38;1829396;78;20183;-39
2021/01/31 00:40:24;;;;;;;;;;;;;;;3.28;87.25;99202.58;1829449;78;20272;-39
2021/01/31 00:42:53;;;;;;;;;;;;;;;3.27;87.37;99195.68;1837005;77;20194;-45
2021/01/31 00:45:22;;;;;;;;;;;;;;;3.27;87.44;99191.80;1800112;78;20181;-40
2021/01/31 00:47:50;;;;;;;;;;;;;;;3.28;87.43;99189.20;1788490;80;20433;-39
2021/01/31 00:50:21;;;;;;;;;;;;;;;3.28;87.38;99177.98;1796783;80;20179;-40
2021/01/31 00:52:48;;;;;;;;;;;;;;;3.27;87.40;99181.44;1817324;78;20458;-40
2021/01/31 00:55:17;;;;;;;;;;;;;;;3.27;87.48;99183.59;1820473;79;20145;-39
2021/01/31 00:57:46;;;;;;;;;;;;;;;3.27;87.46;99184.03;1803119;78;20528;-40
2021/01/31 01:00:20;;;;;;;;;;;;;;;3.27;87.46;99182.73;1801346;80;20143;-40
2021/01/31 01:02:48;;;;;;;;;;;;;;;3.26;87.49;99180.58;1801280;80;20225;-39
2021/01/31 01:05:18;;;;;;;;;;;;;;;3.24;87.52;99177.58;1801075;80;20245;-38
2021/01/31 01:07:46;;;;;;;;;;;;;;;3.23;87.60;99171.53;1801303;80;20211;-38
2021/01/31 01:10:17;;;;;;;;;;;;;;;3.21;87.69;99172.02;1801081;80;20194;-39
2021/01/31 01:12:45;;;;;;;;;;;;;;;3.20;87.77;99171.16;1801095;80;20190;-40
2021/01/31 01:15:13;;;;;;;;;;;;;;;3.19;87.84;99172.02;1801058;80;20277;-40
2021/01/31 01:17:41;;;;;;;;;;;;;;;3.17;87.97;99167.72;1801330;80;20167;-40
2021/01/31 01:20:12;;;;;;;;;;;;;;;3.16;88.07;99165.57;1801024;80;20139;-39
2021/01/31 01:22:39;;;;;;;;;;;;;;;3.16;88.21;99167.30;1801113;80;20250;-40
2021/01/31 01:25:08;;;;;;;;;;;;;;;3.14;88.30;99162.16;1801278;80;20164;-39
2021/01/31 01:27:36;;;;;;;;;;;;;;;3.12;88.41;99161.31;1806173;78;20182;-39
2021/01/31 01:30:09;;;;;;;;;;;;;;;3.12;88.51;99160.45;1834000;78;20227;-39
2021/01/31 01:32:37;;;;;;;;;;;;;;;3.12;88.61;99157.87;1826963;78;20174;-38
2021/01/31 01:35:07;;;;;;;;;;;;;;;3.11;88.70;99154.41;1801315;79;20190;-39
2021/01/31 01:37:35;;;;;;;;;;;;;;;3.11;88.75;99154.85;1801421;80;20274;-39
2021/01/31 01:40:05;;;;;;;;;;;;;;;3.09;88.83;99148.39;1801192;80;20143;-40
2021/01/31 01:42:33;;;;;;;;;;;;;;;3.07;88.97;99139.80;1801225;80;20400;-38
2021/01/31 01:45:01;;;;;;;;;;;;;;;3.07;89.12;99138.95;1801357;80;20178;-40
2021/01/31 01:47:29;;;;;;;;;;;;;;;3.07;89.19;99142.83;1801394;80;20139;-40
2021/01/31 01:50:02;;;;;;;;;;;;;;;3.06;89.22;99139.81;1770790;80;20187;-40
2021/01/31 01:52:33;;;;;;;;;;;;;;;3.05;89.39;99135.07;1800360;80;20207;-38
2021/01/31 01:55:11;;;;;;;;;;;;;;;3.08;89.56;99141.95;1801307;80;20139;-40
2021/01/31 01:57:41;;;;;;;;;;;;;;;3.09;89.68;99135.44;1801126;80;20249;-40
2021/01/31 02:00:10;;;;;;;;;;;;;;;3.12;89.77;99129.38;1801213;80;20400;-39
2021/01/31 02:02:40;;;;;;;;;;;;;;;3.15;89.70;99125.02;1801172;80;20144;-40
2021/01/31 02:05:10;;;;;;;;;;;;;;;3.16;89.71;99125.44;1801231;80;20388;-40
2021/01/31 02:07:38;;;;;;;;;;;;;;;3.17;89.72;99126.30;1801300;80;20389;-40
2021/01/31 02:10:07;;;;;;;;;;;;;;;3.17;89.76;99121.11;1801202;80;20206;-39
2021/01/31 02:12:35;;;;;;;;;;;;;;;3.15;89.79;99126.30;1801354;80;20143;-40
2021/01/31 02:15:04;;;;;;;;;;;;;;;3.16;89.89;99129.31;1801089;80;20238;-38
2021/01/31 02:17:39;;;;;;;;;;;;;;;3.18;89.94;99120.25;1801230;80;20405;-37
2021/01/31 02:20:44;;;;;;;;;;;;;;;3.19;89.92;99122.83;1800957;80;20123;-39
2021/01/31 02:27:13;;;;;;;;;;;;;;;3.26;90.02;99118.42;1908240;74;20138;-39
2021/01/31 02:29:54;;;;;;;;;;;;;;;3.23;90.03;99120.18;1835474;75;20137;-39
2021/01/31 02:32:31;;;;;;;;;;;;;;;3.22;90.04;99114.14;1908148;75;20135;-39
2021/01/31 02:35:18;;;;;;;;;;;;;;;3.21;90.05;99111.16;1904733;75;20120;-38
2021/01/31 02:38:09;;;;;;;;;;;;;;;3.21;90.08;99098.21;1883422;75;20178;-40
2021/01/31 02:40:41;;;;;;;;;;;;;;;3.21;90.09;99100.80;1868020;77;20170;-38
2021/01/31 02:43:14;;;;;;;;;;;;;;;3.20;90.12;99103.83;1868106;77;20400;-39
2021/01/31 02:45:51;;;;;;;;;;;;;;;3.18;90.15;99093.92;1868204;77;20154;-39
2021/01/31 02:48:22;;;;;;;;;;;;;;;3.17;90.26;99095.22;1868072;77;20261;-40
2021/01/31 02:50:53;;;;;;;;;;;;;;;3.15;90.40;99099.12;1868064;77;20158;-39
2021/01/31 02:53:29;;;;;;;;;;;;;;;3.15;90.53;99095.70;1868145;77;20146;-39
2021/01/31 02:56:02;;;;;;;;;;;;;;;3.12;90.68;99096.59;1868089;77;20373;-38
2021/01/31 02:58:35;;;;;;;;;;;;;;;3.11;90.96;99097.89;1868007;77;20396;-40
2021/01/31 03:01:12;;;;;;;;;;;;;;;3.08;91.35;99094.92;1867261;77;20146;-39
2021/01/31 03:03:51;;;;;;;;;;;;;;;3.04;91.70;99098.41;1868126;77;20138;-39
2021/01/31 03:06:21;;;;;;;;;;;;;;;2.99;92.22;99101.92;1834721;77;20142;-40
2021/01/31 03:08:53;;;;;;;;;;;;;;;2.93;92.70;99093.80;1867973;77;20178;-40
2021/01/31 03:11:26;;;;;;;;;;;;;;;2.88;93.32;99099.48;1867425;77;20154;-41
2021/01/31 03:14:04;;;;;;;;;;;;;;;2.83;93.89;99099.08;1867745;77;20126;-40
2021/01/31 03:16:35;;;;;;;;;;;;;;;2.77;94.46;99100.88;1867896;77;20633;-45
2021/01/31 03:19:07;;;;;;;;;;;;;;;2.73;95.22;99102.23;1868161;77;20233;-45
2021/01/31 03:21:34;;;;;;;;;;;;;;;2.68;95.77;99100.99;1867751;77;20153;-40
2021/01/31 03:24:25;;;;;;;;;;;;;;;2.64;96.45;99101.02;1867775;77;20135;-41
2021/01/31 03:26:59;;;;;;;;;;;;;;;2.59;96.92;99092.45;1868294;77;20229;-41
2021/01/31 03:29:28;;;;;;;;;;;;;;;2.52;97.50;99080.02;1867992;77;20256;-41
2021/01/31 03:32:08;;;;;;;;;;;;;;;2.48;98.12;99083.95;1895487;75;20159;-40
2021/01/31 03:34:45;;;;;;;;;;;;;;;2.45;98.64;99074.92;1903297;75;20159;-40
2021/01/31 03:37:13;;;;;;;;;;;;;;;2.42;99.27;99087.47;1902810;75;20379;-41
2021/01/31 03:39:42;;;;;;;;;;;;;;;2.40;99.75;99083.59;1902562;75;20516;-40
2021/01/31 03:42:10;;;;;;;;;;;;;;;2.38;100.00;99081.89;1902576;75;20191;-40
2021/01/31 03:44:42;;;;;;;;;;;;;;;2.36;100.00;99079.77;1889659;75;20188;-40
2021/01/31 03:47:08;;;;;;;;;;;;;;;2.36;100.00;99074.60;1872437;75;20257;-41
2021/01/31 03:49:40;;;;;;;;;;;;;;;2.34;100.00;99076.34;1869346;75;20170;-40
2021/01/31 03:52:08;;;;;;;;;;;;;;;2.36;100.00;99081.89;1867465;77;20182;-41
2021/01/31 03:54:36;;;;;;;;;;;;;;;2.37;100.00;99073.27;1867325;77;20162;-40
2021/01/31 03:57:06;;;;;;;;;;;;;;;2.38;100.00;99079.30;1867512;77;20381;-40
2021/01/31 03:59:55;;;;;;;;;;;;;;;2.39;100.00;99070.67;1876622;76;20146;-41
2021/01/31 04:02:26;;;;;;;;;;;;;;;2.40;100.00;99077.56;1834741;77;20412;-42
2021/01/31 04:04:54;;;;;;;;;;;;;;;2.44;100.00;99084.41;1866699;77;20138;-41
2021/01/31 04:07:24;;;;;;;;;;;;;;;2.49;100.00;99085.25;1876643;76;20440;-41
2021/01/31 04:09:51;;;;;;;;;;;;;;;2.54;100.00;99074.84;1867426;77;20221;-41
2021/01/31 04:12:22;;;;;;;;;;;;;;;2.60;100.00;99079.95;1848499;77;20174;-40
2021/01/31 04:15:07;;;;;;;;;;;;;;;2.66;100.00;99074.70;1867411;77;20122;-40
2021/01/31 04:17:35;;;;;;;;;;;;;;;2.73;100.00;99078.50;1867322;77;20134;-41
2021/01/31 04:20:04;;;;;;;;;;;;;;;2.79;100.00;99084.91;1867200;77;20162;-40
2021/01/31 04:22:32;;;;;;;;;;;;;;;2.82;100.00;99086.61;1867283;77;20138;-40
2021/01/31 04:24:59;;;;;;;;;;;;;;;2.85;100.00;99086.55;1867331;77;20135;-40
2021/01/31 04:27:27;;;;;;;;;;;;;;;2.87;100.00;99089.99;1867328;77;20134;-40
2021/01/31 04:29:55;;;;;;;;;;;;;;;2.91;100.00;99089.51;1867209;77;20225;-39
2021/01/31 04:32:22;;;;;;;;;;;;;;;2.94;100.00;99097.25;1867140;77;20178;-40
2021/01/31 04:34:51;;;;;;;;;;;;;;;2.96;100.00;99095.48;1867551;77;20202;-41
2021/01/31 04:37:20;;;;;;;;;;;;;;;2.97;100.00;99095.47;1867448;77;20245;-40
2021/01/31 04:39:48;;;;;;;;;;;;;;;2.99;100.00;99101.92;1867541;77;20404;-40
2021/01/31 04:42:17;;;;;;;;;;;;;;;2.98;100.00;99098.91;1867601;77;20162;-40
2021/01/31 04:44:45;;;;;;;;;;;;;;;2.98;100.00;99103.66;1867176;77;20179;-40
2021/01/31 04:47:16;;;;;;;;;;;;;;;3.00;100.00;99094.59;1876497;76;20150;-40
2021/01/31 04:49:50;;;;;;;;;;;;;;;3.00;100.00;99104.94;1867466;77;20162;-39
2021/01/31 04:52:38;;;;;;;;;;;;;;;3.01;100.00;99102.78;1835519;77;20162;-39
2021/01/31 04:55:32;;;;;;;;;;;;;;;3.01;100.00;99106.23;1867276;77;20161;-39
2021/01/31 04:58:12;;;;;;;;;;;;;;;3.02;100.00;99111.80;1867497;77;20594;-40
2021/01/31 05:00:48;;;;;;;;;;;;;;;3.01;100.00;99115.28;1867295;77;20641;-39
2021/01/31 05:03:16;;;;;;;;;;;;;;;3.01;100.00;99113.13;1867098;77;20487;-41
2021/01/31 05:05:54;;;;;;;;;;;;;;;3.01;100.00;99119.17;1867187;77;20193;-41
2021/01/31 05:08:24;;;;;;;;;;;;;;;3.01;100.00;99115.72;1864783;76;20153;-40
2021/01/31 05:11:00;;;;;;;;;;;;;;;3.02;100.00;99125.20;1867083;77;20122;-40
2021/01/31 05:13:37;;;;;;;;;;;;;;;3.02;100.00;99123.45;1867275;76;20150;-40
2021/01/31 05:16:10;;;;;;;;;;;;;;;3.04;100.00;99132.06;1866904;77;20194;-40
2021/01/31 05:18:40;;;;;;;;;;;;;;;3.05;100.00;99132.48;1867347;77;20170;-40
2021/01/31 05:21:08;;;;;;;;;;;;;;;3.06;100.00;99137.23;1867163;77;20134;-41
2021/01/31 05:23:38;;;;;;;;;;;;;;;3.05;100.00;99129.89;1867339;77;20550;-41
2021/01/31 05:26:07;;;;;;;;;;;;;;;3.05;100.00;99130.33;1868703;75;20142;-40
2021/01/31 05:28:36;;;;;;;;;;;;;;;3.07;100.00;99127.30;1889410;75;20167;-41
2021/01/31 05:31:03;;;;;;;;;;;;;;;3.06;100.00;99121.70;1890033;75;20518;-39
2021/01/31 05:33:31;;;;;;;;;;;;;;;3.07;100.00;99122.12;1899418;75;20183;-41
2021/01/31 05:36:08;;;;;;;;;;;;;;;3.07;100.00;99121.69;1836849;77;20140;-42
2021/01/31 05:38:39;;;;;;;;;;;;;;;3.08;100.00;99125.13;1867165;75;20152;-40
2021/01/31 05:41:33;;;;;;;;;;;;;;;3.08;100.00;99127.72;1867139;77;20150;-41
2021/01/31 05:44:03;;;;;;;;;;;;;;;3.07;100.00;99136.36;1867193;77;20178;-41
2021/01/31 05:46:42;;;;;;;;;;;;;;;3.06;100.00;99132.91;1867110;76;20264;-40
2021/01/31 05:49:11;;;;;;;;;;;;;;;3.06;100.00;99134.20;1867278;77;20170;-41
2021/01/31 05:51:40;;;;;;;;;;;;;;;3.09;100.00;99141.05;1867100;76;20300;-41
2021/01/31 05:54:20;;;;;;;;;;;;;;;3.09;100.00;99144.50;1835133;77;20126;-42
2021/01/31 05:56:47;;;;;;;;;;;;;;;3.10;100.00;99146.66;1872892;75;20138;-41
2021/01/31 05:59:15;;;;;;;;;;;;;;;3.11;100.00;99141.91;1893893;75;20239;-42
2021/01/31 06:01:56;;;;;;;;;;;;;;;3.10;100.00;99141.48;1871036;75;20474;-43
2021/01/31 06:04:24;;;;;;;;;;;;;;;3.10;100.00;99146.22;1867320;77;20142;-42
2021/01/31 06:06:53;;;;;;;;;;;;;;;3.13;100.00;99140.17;1867406;77;20178;-42
2021/01/31 06:09:42;;;;;;;;;;;;;;;3.13;100.00;99146.64;1866966;77;20193;-41
2021/01/31 06:12:23;;;;;;;;;;;;;;;3.13;100.00;99142.32;1867008;77;20457;-42
2021/01/31 06:15:10;;;;;;;;;;;;;;;3.14;100.00;99150.95;1867446;76;20440;-43
2021/01/31 06:17:37;;;;;;;;;;;;;;;3.14;100.00;99148.36;1835638;75;20146;-41
2021/01/31 06:20:10;;;;;;;;;;;;;;;3.14;100.00;99159.58;1846763;75;20124;-43
2021/01/31 06:22:46;;;;;;;;;;;;;;;3.18;100.00;99156.50;1867341;77;20174;-43
2021/01/31 06:26:51;;;;;;;;;;;;;;;3.26;100.00;99148.20;1903091;74;20149;-43
2021/01/31 06:29:41;;;;;;;;;;;;;;;3.26;100.00;99143.46;1881868;75;20136;-43
2021/01/31 06:32:18;;;;;;;;;;;;;;;3.27;100.00;99139.56;1868178;75;20155;-43
2021/01/31 06:35:01;;;;;;;;;;;;;;;3.31;100.00;99136.05;1867927;76;20225;-42
2021/01/31 06:37:35;;;;;;;;;;;;;;;3.34;100.00;99144.23;1872283;75;20371;-41
2021/01/31 06:40:23;;;;;;;;;;;;;;;3.36;100.00;99145.91;1890308;75;20143;-41
2021/01/31 06:43:04;;;;;;;;;;;;;;;3.36;100.00;99144.61;1893817;75;20136;-43
2021/01/31 06:46:00;;;;;;;;;;;;;;;3.37;100.00;99137.70;1902704;75;20378;-42
2021/01/31 06:48:31;;;;;;;;;;;;;;;3.39;100.00;99133.37;1900219;75;20468;-42
2021/01/31 06:51:18;;;;;;;;;;;;;;;3.42;100.00;99146.27;1886403;75;20124;-42
2021/01/31 06:54:17;;;;;;;;;;;;;;;3.45;100.00;99152.72;1902959;75;20421;-44
2021/01/31 06:57:12;;;;;;;;;;;;;;;3.47;100.00;99159.60;1873401;75;20380;-42
2021/01/31 07:00:01;;;;;;;;;;;;;;;3.48;100.00;99163.88;1882154;75;20217;-43
2021/01/31 07:02:51;;;;;;;;;;;;;;;3.51;100.00;99167.73;1877234;75;20168;-44
2021/01/31 07:05:35;;;;;;;;;;;;;;;3.55;100.00;99160.77;1868204;75;20185;-45
2021/01/31 07:08:30;;;;;;;;;;;;;;;3.56;100.00;99166.38;1868480;75;20220;-42
2021/01/31 07:11:12;;;;;;;;;;;;;;;3.59;100.00;99176.28;1893591;75;20187;-43
2021/01/31 07:13:55;;;;;;;;;;;;;;;3.63;100.00;99182.70;1876634;75;20454;-43
2021/01/31 07:16:32;;;;;;;;;;;;;;;3.65;100.00;99178.36;1868675;75;20161;-43
2021/01/31 07:19:13;;;;;;;;;;;;;;;3.67;100.00;99180.07;1902933;75;20270;-42
2021/01/31 07:21:44;;;;;;;;;;;;;;;3.69;100.00;99185.20;1883184;75;20178;-45
2021/01/31 07:24:38;;;;;;;;;;;;;;;3.71;100.00;99185.62;1869258;75;20304;-44
2021/01/31 07:27:30;;;;;;;;;;;;;;;3.74;100.00;99186.03;1870517;75;20157;-43
2021/01/31 07:30:10;;;;;;;;;;;;;;;3.74;100.00;99188.16;1863110;75;20389;-43
2021/01/31 07:33:27;;;;;;;;;;;;;;;3.76;100.00;99191.59;1850853;77;20304;-44
2021/01/31 07:36:19;;;;;;;;;;;;;;;3.79;100.00;99190.70;1824909;75;20292;-43
2021/01/31 07:39:02;;;;;;;;;;;;;;;3.81;100.00;99201.89;1871192;75;20135;-44
2021/01/31 07:41:30;;;;;;;;;;;;;;;3.83;100.00;99198.84;1867141;77;20396;-44
2021/01/31 07:44:04;;;;;;;;;;;;;;;3.85;100.00;99206.17;1873599;75;20417;-43
2021/01/31 07:46:31;;;;;;;;;;;;;;;3.89;100.00;99209.98;1870596;75;20194;-43
2021/01/31 07:49:02;;;;;;;;;;;;;;;3.93;100.00;99222.48;1866915;77;20236;-43
2021/01/31 07:51:37;;;;;;;;;;;;;;;3.95;100.00;99218.11;1867683;75;20126;-45
2021/01/31 07:54:27;;;;;;;;;;;;;;;3.97;100.00;99229.33;1866892;77;20146;-47
2021/01/31 07:56:55;;;;;;;;;;;;;;;3.99;100.00;99222.40;1867136;77;20128;-45
2021/01/31 07:59:27;;;;;;;;;;;;;;;4.04;100.00;99236.59;1867588;75;20175;-44
2021/01/31 08:01:56;;;;;;;;;;;;;;;4.10;100.00;99236.50;1885331;75;20188;-45
2021/01/31 08:04:36;;;;;;;;;;;;;;;4.17;100.00;99236.83;1880877;75;20181;-43
2021/01/31 08:07:05;;;;;;;;;;;;;;;4.25;100.00;99243.63;1872159;75;20138;-44
2021/01/31 08:09:43;;;;;;;;;;;;;;;4.35;100.00;99243.04;1885965;75;20418;-44
2021/01/31 08:12:12;;;;;;;;;;;;;;;4.46;100.00;99239.00;1875234;75;20421;-42
2021/01/31 08:15:04;;;;;;;;;;;;;;;4.51;100.00;99237.19;1867685;75;20436;-44
2021/01/31 08:17:57;;;;;;;;;;;;;;;4.57;100.00;99257.85;1877349;75;20168;-43
2021/01/31 08:20:32;;;;;;;;;;;;;;;4.62;100.00;99251.70;1872120;75;20150;-42
2021/01/31 08:23:02;;;;;;;;;;;;;;;4.65;100.00;99263.34;1878101;75;20280;-43
2021/01/31 08:25:33;;;;;;;;;;;;;;;4.68;100.00;99273.66;1871325;75;20194;-45
2021/01/31 08:28:05;;;;;;;;;;;;;;;4.70;100.00;99267.16;1872957;75;20142;-44
2021/01/31 08:30:41;;;;;;;;;;;;;;;4.72;100.00;99278.39;1885550;75;20367;-44
2021/01/31 08:33:22;;;;;;;;;;;;;;;4.75;100.00;99275.72;1880454;75;20364;-43
2021/01/31 08:35:53;;;;;;;;;;;;;;;4.82;100.00;99264.36;1869171;75;20130;-44
2021/01/31 08:38:31;;;;;;;;;;;;;;;4.88;100.00;99261.66;1871082;75;20170;-43
2021/01/31 08:41:03;;;;;;;;;;;;;;;4.93;100.00;99260.27;1884014;75;20171;-43
2021/01/31 08:43:37;;;;;;;;;;;;;;;4.98;100.00;99263.23;1866896;75;20524;-41
2021/01/31 08:46:10;;;;;;;;;;;;;;;5.04;100.00;99263.13;1869117;75;20191;-43
2021/01/31 08:48:38;;;;;;;;;;;;;;;5.10;100.00;99275.14;1811115;75;20361;-42
2021/01/31 08:51:13;;;;;;;;;;;;;;;5.15;100.00;99277.21;1877632;75;20453;-43
2021/01/31 08:53:41;;;;;;;;;;;;;;;5.20;100.00;99278.84;1874581;75;20171;-41
2021/01/31 08:56:14;;;;;;;;;;;;;;;5.24;100.00;99290.49;1868478;75;20193;-41
2021/01/31 08:58:42;;;;;;;;;;;;;;;5.28;100.00;99290.84;1873128;75;20118;-40
2021/01/31 09:01:10;;;;;;;;;;;;;;;5.30;100.00;99277.39;1870451;75;20424;-40
2021/01/31 09:03:42;;;;;;;;;;;;;;;5.33;100.00;99282.51;1875364;75;20202;-40
2021/01/31 09:06:10;;;;;;;;;;;;;;;5.37;100.00;99289.39;1869358;75;20536;-40
2021/01/31 09:08:40;;;;;;;;;;;;;;;5.38;100.00;99282.01;1868515;75;20146;-41
2021/01/31 09:11:13;;;;;;;;;;;;;;;5.40;99.43;99287.58;1864715;77;20194;-43
2021/01/31 09:13:41;;;;;;;;;;;;;;;5.43;98.84;99291.87;1879914;75;20155;-41
2021/01/31 09:16:22;;;;;;;;;;;;;;;5.46;98.24;99289.20;1885775;75;20183;-41
2021/01/31 09:19:09;;;;;;;;;;;;;;;5.51;97.59;99281.72;1879085;75;20121;-42
2021/01/31 09:21:37;;;;;;;;;;;;;;;5.57;96.86;99304.17;1867904;75;20383;-42
2021/01/31 09:24:08;;;;;;;;;;;;;;;5.60;96.44;99308.86;1871719;75;20221;-38
2021/01/31 09:26:35;;;;;;;;;;;;;;;5.63;96.28;99306.66;1867286;75;20179;-47
2021/01/31 09:29:09;;;;;;;;;;;;;;;5.65;96.12;99308.75;1860290;75;20166;-41
2021/01/31 09:31:37;;;;;;;;;;;;;;;5.67;95.85;99307.44;1871709;75;20197;-41
2021/01/31 09:34:05;;;;;;;;;;;;;;;5.68;95.79;99300.05;1875689;75;20196;-41
2021/01/31 09:36:36;;;;;;;;;;;;;;;5.71;95.83;99285.71;1880260;75;20206;-40
2021/01/31 09:39:07;;;;;;;;;;;;;;;5.81;95.89;99299.78;1871275;75;20225;-42
2021/01/31 09:41:35;;;;;;;;;;;;;;;5.92;95.62;99312.16;1873321;75;20174;-41
2021/01/31 09:44:04;;;;;;;;;;;;;;;6.02;95.36;99329.75;1869478;75;20133;-41
2021/01/31 09:46:33;;;;;;;;;;;;;;;6.04;94.69;99331.03;1874231;75;20195;-42
2021/01/31 09:49:20;;;;;;;;;;;;;;;6.06;94.29;99335.73;1870194;75;20511;-40
2021/01/31 09:51:50;;;;;;;;;;;;;;;6.05;93.60;99326.20;1871199;75;20190;-40
2021/01/31 09:54:19;;;;;;;;;;;;;;;6.05;93.05;99344.42;1875801;75;20174;-42
2021/01/31 09:56:49;;;;;;;;;;;;;;;6.02;91.72;99347.96;1868979;75;20194;-42
2021/01/31 09:59:26;;;;;;;;;;;;;;;6.03;91.44;99356.19;1871800;75;20219;-41
2021/01/31 10:02:00;;;;;;;;;;;;;;;6.03;91.35;99374.84;1881968;75;20198;-42
2021/01/31 10:04:28;;;;;;;;;;;;;;;6.05;90.85;99385.61;1868099;75;20189;-41
2021/01/31 10:06:59;;;;;;;;;;;;;;;6.07;90.14;99391.65;1881936;75;20141;-40
2021/01/31 10:09:31;;;;;;;;;;;;;;;6.09;89.74;99389.02;1883444;75;20156;-41
2021/01/31 10:12:27;;;;;;;;;;;;;;;6.13;89.60;99379.81;1871597;75;20197;-43
2021/01/31 10:15:04;;;;;;;;;;;;;;;6.17;89.49;99393.16;1870261;75;20185;-43
2021/01/31 10:17:43;;;;;;;;;;;;;;;6.22;89.50;99393.09;1871946;75;20193;-44
2021/01/31 10:20:28;;;;;;;;;;;;;;;6.26;89.50;99394.30;1873926;75;20198;-41
2021/01/31 10:23:01;;;;;;;;;;;;;;;6.28;88.77;99407.28;1868450;75;20210;-41
2021/01/31 10:26:50;;;;;;;;;;;;;;;6.43;87.55;99417.84;1892375;74;20274;-43
2021/01/31 10:29:23;;;;;;;;;;;;;;;6.50;86.75;99424.64;1864230;75;20135;-41
2021/01/31 10:31:52;;;;;;;;;;;;;;;6.51;85.57;99440.64;1871194;75;20174;-42
2021/01/31 10:34:40;;;;;;;;;;;;;;;6.37;82.53;99456.53;1871405;75;20151;-42
2021/01/31 10:37:19;;;;;;;;;;;;;;;5.89;81.35;99464.83;1871931;75;20122;-41
2021/01/31 10:39:50;;;;;;;;;;;;;;;5.27;83.19;99466.67;1855735;75;20219;-43
2021/01/31 10:42:20;;;;;;;;;;;;;;;4.92;84.98;99471.09;1830235;75;20185;-43
2021/01/31 10:44:47;;;;;;;;;;;;;;;4.79;86.03;99487.71;1870647;75;20209;-43
2021/01/31 10:47:15;;;;;;;;;;;;;;;4.73;86.65;99495.55;1878105;75;20205;-43
2021/01/31 10:49:42;;;;;;;;;;;;;;;4.66;86.92;99493.94;1876409;75;20202;-43
2021/01/31 10:52:10;;;;;;;;;;;;;;;4.62;87.03;99503.48;1872849;75;20504;-43
2021/01/31 10:54:38;;;;;;;;;;;;;;;4.60;86.67;99517.34;1871509;75;20178;-43
2021/01/31 10:57:06;;;;;;;;;;;;;;;4.58;86.39;99522.58;1877477;75;20129;-45
2021/01/31 10:59:34;;;;;;;;;;;;;;;4.57;86.23;99505.71;1867765;75;20150;-40
2021/01/31 11:02:01;;;;;;;;;;;;;;;4.48;85.70;99548.19;1872363;75;20170;-41
2021/01/31 11:04:29;;;;;;;;;;;;;;;4.35;84.90;99538.38;1872176;75;20211;-41
2021/01/31 11:06:57;;;;;;;;;;;;;;;4.20;83.62;99556.67;1867868;75;20119;-40
2021/01/31 11:09:24;;;;;;;;;;;;;;;4.05;82.86;99536.52;1869321;75;20440;-42
2021/01/31 11:11:52;;;;;;;;;;;;;;;3.99;83.45;99546.09;1870230;75;20201;-43
2021/01/31 11:14:21;;;;;;;;;;;;;;;3.98;83.36;99568.13;1870058;75;20208;-43
2021/01/31 11:16:48;;;;;;;;;;;;;;;3.97;82.70;99578.08;1870898;75;20126;-42
2021/01/31 11:19:16;;;;;;;;;;;;;;;3.93;81.95;99588.06;1878430;75;20243;-43
2021/01/31 11:21:44;;;;;;;;;;;;;;;3.91;81.68;99592.39;1872610;75;20190;-42
2021/01/31 11:24:12;;;;;;;;;;;;;;;3.94;81.53;99591.05;1868225;75;20631;-41
2021/01/31 11:26:42;;;;;;;;;;;;;;;3.97;81.19;99598.39;1870647;75;20146;-43
2021/01/31 11:29:09;;;;;;;;;;;;;;;3.98;80.76;99622.16;1873509;75;20136;-43
2021/01/31 11:31:41;;;;;;;;;;;;;;;3.93;81.43;99617.45;1870854;75;20403;-42
2021/01/31 11:34:11;;;;;;;;;;;;;;;3.69;82.24;99633.57;1860590;75;20193;-41
2021/01/31 11:36:39;;;;;;;;;;;;;;;3.53;82.88;99634.11;1868461;75;20219;-42
2021/01/31 11:39:08;;;;;;;;;;;;;;;3.34;83.08;99624.28;1875663;75;20172;-40
2021/01/31 11:41:36;;;;;;;;;;;;;;;3.20;83.87;99666.22;1876659;75;20118;-41
2021/01/31 11:44:06;;;;;;;;;;;;;;;3.15;84.79;99629.13;1870460;75;20467;-41
2021/01/31 11:46:34;;;;;;;;;;;;;;;3.03;85.48;99692.58;1868587;75;20152;-40
2021/01/31 11:49:03;;;;;;;;;;;;;;;2.77;85.68;99667.61;1871427;75;20578;-42
2021/01/31 11:51:31;;;;;;;;;;;;;;;2.56;86.37;99707.73;1864491;75;20155;-42
2021/01/31 11:53:58;;;;;;;;;;;;;;;2.39;86.35;99723.70;1893501;75;20191;-42
2021/01/31 11:56:26;;;;;;;;;;;;;;;2.23;86.29;99708.59;1899667;75;20151;-41
2021/01/31 11:58:54;;;;;;;;;;;;;;;2.12;85.46;99745.64;1871510;75;20156;-42
2021/01/31 12:01:25;;;;;;;;;;;;;;;2.02;85.44;99756.41;1873583;75;20550;-41
2021/01/31 12:03:52;;;;;;;;;;;;;;;2.02;85.69;99768.47;1872930;75;20201;-43
2021/01/31 12:06:20;;;;;;;;;;;;;;;2.05;85.81;99773.20;1868668;75;20479;-41
2021/01/31 12:08:48;;;;;;;;;;;;;;;2.07;85.09;99788.30;1885144;75;20140;-39
2021/01/31 12:11:15;;;;;;;;;;;;;;;1.95;82.25;99791.72;1881909;75;20176;-41
2021/01/31 12:13:45;;;;;;;;;;;;;;;1.78;81.37;99802.39;1876185;75;20205;-41
2021/01/31 12:16:14;;;;;;;;;;;;;;;1.71;81.66;99807.56;1869303;75;20206;-41
2021/01/31 12:18:42;;;;;;;;;;;;;;;1.65;81.03;99806.20;1866875;75;20154;-43
2021/01/31 12:21:09;;;;;;;;;;;;;;;1.55;80.43;99797.56;1874978;75;20199;-43
2021/01/31 12:23:37;;;;;;;;;;;;;;;1.37;79.59;99831.05;1873895;75;20179;-42
2021/01/31 12:26:05;;;;;;;;;;;;;;;1.25;80.23;99838.72;1872996;75;20192;-42
2021/01/31 12:28:33;;;;;;;;;;;;;;;1.17;80.25;99842.10;1871700;75;20190;-39
2021/01/31 12:31:01;;;;;;;;;;;;;;;1.10;80.67;99817.09;1866277;75;20126;-42
2021/01/31 12:33:30;;;;;;;;;;;;;;;1.01;79.90;99853.58;1825991;75;20265;-41
2021/01/31 12:36:01;;;;;;;;;;;;;;;0.87;79.98;99877.97;1858168;75;20134;-41
2021/01/31 12:38:36;;;;;;;;;;;;;;;0.77;79.95;99869.72;1805491;77;20130;-41
2021/01/31 12:41:20;;;;;;;;;;;;;;;0.73;80.12;99884.28;1859013;75;20176;-42
2021/01/31 12:43:53;;;;;;;;;;;;;;;0.67;80.23;99899.70;1850344;75;20166;-41
2021/01/31 12:46:26;;;;;;;;;;;;;;;0.56;80.62;99905.19;1854366;75;20156;-40
2021/01/31 12:48:55;;;;;;;;;;;;;;;0.53;80.87;99923.61;1870785;75;20459;-40
2021/01/31 12:51:25;;;;;;;;;;;;;;;0.48;80.26;99933.88;1888446;75;20125;-42
2021/01/31 12:53:53;;;;;;;;;;;;;;;0.35;79.47;99934.59;1871320;75;20199;-42
2021/01/31 12:56:20;;;;;;;;;;;;;;;0.22;79.21;99961.06;1866371;75;20310;-43
2021/01/31 12:58:48;;;;;;;;;;;;;;;0.15;79.03;99943.36;1871723;75;20610;-43
2021/01/31 13:01:17;;;;;;;;;;;;;;;0.11;78.78;99966.50;1872948;75;20214;-41
2021/01/31 13:03:44;;;;;;;;;;;;;;;0.08;78.82;99943.26;1872990;75;20162;-41
2021/01/31 13:06:12;;;;;;;;;;;;;;;0.03;78.24;99977.99;1877796;75;20122;-41
2021/01/31 13:08:39;;;;;;;;;;;;;;;0.00;78.35;99978.80;1874225;75;20306;-39
2021/01/31 13:11:08;;;;;;;;;;;;;;;-0.02;78.21;100001.55;1875829;75;20126;-42
2021/01/31 13:13:36;;;;;;;;;;;;;;;-0.06;78.48;100007.48;1875938;75;20242;-41
2021/01/31 13:16:04;;;;;;;;;;;;;;;-0.04;78.86;99976.17;1871213;75;20166;-41
2021/01/31 13:18:31;;;;;;;;;;;;;;;-0.05;79.09;100015.66;1866298;75;20154;-43
2021/01/31 13:21:00;;;;;;;;;;;;;;;-0.08;79.35;100021.65;1868546;75;20554;-41
2021/01/31 13:23:28;;;;;;;;;;;;;;;-0.08;79.18;100008.77;1869831;75;20130;-41
2021/01/31 13:25:56;;;;;;;;;;;;;;;-0.12;78.60;100037.02;1870671;75;20280;-42
2021/01/31 13:28:24;;;;;;;;;;;;;;;-0.19;77.37;100013.29;1870999;75;20125;-40